sensor_id;sensor_type;location;lat;lon;timestamp;temperature;humidity
7016;DHT22;3548;48.402;9.990;2022-12-13T00:01:14;-5.20;99.90
7016;DHT22;3548;48.402;9.990;2022-12-13T00:03:41;-5.20;99.90
7016;DHT22;3548;48.402;9.990;2022-12-13T00:06:08;-5.20;99.90
7016;DHT22;3548;48.402;9.990;2022-12-13T00:08:35;-5.30;99.90
7016;DHT22;3548;48.402;9.990;2022-12-13T00:11:03;-5.30;99.90
7016;DHT22;3548;48.402;9.990;2022-12-13T00:13:29;-5.40;99.90
7016;DHT22;3548;48.402;9.990;2022-12-13T00:16:00;-5.50;99.90
7016;DHT22;3548;48.402;9.990;2022-12-13T00:18:27;-5.60;99.90
7016;DHT22;3548;48.402;9.990;2022-12-13T00:20:53;-5.60;99.90
7016;DHT22;3548;48.402;9.990;2022-12-13T00:23:19;-5.70;99.90
7016;DHT22;3548;48.402;9.990;2022-12-13T00:25:46;-5.70;99.90
7016;DHT22;3548;48.402;9.990;2022-12-13T00:28:13;-5.80;99.90
7016;DHT22;3548;48.402;9.990;2022-12-13T00:30:39;-5.70;99.90
7016;DHT22;3548;48.402;9.990;2022-12-13T00:33:05;-5.70;99.90
7016;DHT22;3548;48.402;9.990;2022-12-13T00:35:32;-5.50;99.90
7016;DHT22;3548;48.402;9.990;2022-12-13T00:37:58;-5.50;99.90
7016;DHT22;3548;48.402;9.990;2022-12-13T00:40:24;-5.50;99.90
7016;DHT22;3548;48.402;9.990;2022-12-13T00:42:49;-5.60;99.90
7016;DHT22;3548;48.402;9.990;2022-12-13T00:45:15;-5.60;99.90
7016;DHT22;3548;48.402;9.990;2022-12-13T00:47:41;-5.70;99.90
7016;DHT22;3548;48.402;9.990;2022-12-13T00:50:06;-5.70;99.90
7016;DHT22;3548;48.402;9.990;2022-12-13T00:52:35;-5.70;99.90
7016;DHT22;3548;48.402;9.990;2022-12-13T00:55:01;-5.70;99.90
7016;DHT22;3548;48.402;9.990;2022-12-13T00:57:27;-5.70;99.90
7016;DHT22;3548;48.402;9.990;2022-12-13T00:59:53;-5.60;99.90
7016;DHT22;3548;48.402;9.990;2022-12-13T01:02:19;-5.70;99.90
7016;DHT22;3548;48.402;9.990;2022-12-13T01:04:44;-5.70;99.90
7016;DHT22;3548;48.402;9.990;2022-12-13T01:07:10;-5.60;99.90
7016;DHT22;3548;48.402;9.990;2022-12-13T01:09:35;-5.70;99.90
7016;DHT22;3548;48.402;9.990;2022-12-13T01:12:05;-5.70;99.90
7016;DHT22;3548;48.402;9.990;2022-12-13T01:14:34;-5.70;99.90
7016;DHT22;3548;48.402;9.990;2022-12-13T01:17:00;-5.70;99.90
7016;DHT22;3548;48.402;9.990;2022-12-13T01:19:26;-5.70;99.90
7016;DHT22;3548;48.402;9.990;2022-12-13T01:21:57;-5.70;99.90
7016;DHT22;3548;48.402;9.990;2022-12-13T01:24:23;-5.80;99.90
7016;DHT22;3548;48.402;9.990;2022-12-13T01:26:49;-5.70;99.90
7016;DHT22;3548;48.402;9.990;2022-12-13T01:29:15;-5.70;99.90
7016;DHT22;3548;48.402;9.990;2022-12-13T01:31:41;-5.80;99.90
7016;DHT22;3548;48.402;9.990;2022-12-13T01:34:09;-5.80;99.90
7016;DHT22;3548;48.402;9.990;2022-12-13T01:36:36;-5.80;99.90
7016;DHT22;3548;48.402;9.990;2022-12-13T01:39:02;-5.80;99.90
7016;DHT22;3548;48.402;9.990;2022-12-13T01:41:30;-5.80;99.90
7016;DHT22;3548;48.402;9.990;2022-12-13T01:43:58;-5.80;99.90
7016;DHT22;3548;48.402;9.990;2022-12-13T01:46:25;-5.80;99.90
7016;DHT22;3548;48.402;9.990;2022-12-13T01:49:10;-5.90;99.90
7016;DHT22;3548;48.402;9.990;2022-12-13T01:51:50;-5.90;99.90
7016;DHT22;3548;48.402;9.990;2022-12-13T01:54:19;-5.90;99.90
7016;DHT22;3548;48.402;9.990;2022-12-13T01:56:51;-5.90;99.90
7016;DHT22;3548;48.402;9.990;2022-12-13T01:59:17;-5.80;99.90
7016;DHT22;3548;48.402;9.990;2022-12-13T02:01:46;-5.80;99.90
7016;DHT22;3548;48.402;9.990;2022-12-13T02:04:17;-5.80;99.90
7016;DHT22;3548;48.402;9.990;2022-12-13T02:06:45;-5.80;99.90
7016;DHT22;3548;48.402;9.990;2022-12-13T02:09:12;-5.80;99.90
7016;DHT22;3548;48.402;9.990;2022-12-13T02:11:41;-5.80;99.90
7016;DHT22;3548;48.402;9.990;2022-12-13T02:14:07;-5.80;99.90
7016;DHT22;3548;48.402;9.990;2022-12-13T02:25:06;-5.80;99.90
7016;DHT22;3548;48.402;9.990;2022-12-13T02:30:49;-5.90;99.90
7016;DHT22;3548;48.402;9.990;2022-12-13T02:33:59;-5.90;99.90
7016;DHT22;3548;48.402;9.990;2022-12-13T02:36:39;-6.00;99.90
7016;DHT22;3548;48.402;9.990;2022-12-13T02:39:43;-6.00;99.90
7016;DHT22;3548;48.402;9.990;2022-12-13T02:42:20;-6.00;99.90
7016;DHT22;3548;48.402;9.990;2022-12-13T02:44:52;-6.00;99.90
7016;DHT22;3548;48.402;9.990;2022-12-13T02:47:22;-6.00;99.90
7016;DHT22;3548;48.402;9.990;2022-12-13T02:49:53;-6.10;99.90
7016;DHT22;3548;48.402;9.990;2022-12-13T02:52:24;-6.20;99.90
7016;DHT22;3548;48.402;9.990;2022-12-13T02:54:51;-6.30;99.90
7016;DHT22;3548;48.402;9.990;2022-12-13T02:57:32;-6.30;99.90
7016;DHT22;3548;48.402;9.990;2022-12-13T03:00:04;-6.30;99.90
7016;DHT22;3548;48.402;9.990;2022-12-13T03:02:37;-6.30;99.90
7016;DHT22;3548;48.402;9.990;2022-12-13T03:05:43;-6.20;99.90
7016;DHT22;3548;48.402;9.990;2022-12-13T03:08:58;-6.20;99.90
7016;DHT22;3548;48.402;9.990;2022-12-13T03:11:39;-6.20;99.90
7016;DHT22;3548;48.402;9.990;2022-12-13T03:14:26;-6.30;99.90
7016;DHT22;3548;48.402;9.990;2022-12-13T03:16:53;-6.30;99.90
7016;DHT22;3548;48.402;9.990;2022-12-13T03:19:19;-6.30;99.90
7016;DHT22;3548;48.402;9.990;2022-12-13T03:21:48;-6.30;99.90
7016;DHT22;3548;48.402;9.990;2022-12-13T03:24:18;-6.20;99.90
7016;DHT22;3548;48.402;9.990;2022-12-13T03:26:46;-6.20;99.90
7016;DHT22;3548;48.402;9.990;2022-12-13T03:29:12;-6.30;99.90
7016;DHT22;3548;48.402;9.990;2022-12-13T03:31:38;-6.20;99.90
7016;DHT22;3548;48.402;9.990;2022-12-13T03:34:04;-6.30;99.90
7016;DHT22;3548;48.402;9.990;2022-12-13T03:36:29;-6.30;99.90
7016;DHT22;3548;48.402;9.990;2022-12-13T03:38:55;-6.30;99.90
7016;DHT22;3548;48.402;9.990;2022-12-13T03:41:23;-6.40;99.90
7016;DHT22;3548;48.402;9.990;2022-12-13T03:43:56;-6.40;99.90
7016;DHT22;3548;48.402;9.990;2022-12-13T03:46:22;-6.30;99.90
7016;DHT22;3548;48.402;9.990;2022-12-13T03:48:48;-6.40;99.90
7016;DHT22;3548;48.402;9.990;2022-12-13T03:51:13;-6.40;99.90
7016;DHT22;3548;48.402;9.990;2022-12-13T03:53:39;-6.50;99.90
7016;DHT22;3548;48.402;9.990;2022-12-13T03:56:05;-6.60;99.90
7016;DHT22;3548;48.402;9.990;2022-12-13T03:58:32;-6.60;99.90
7016;DHT22;3548;48.402;9.990;2022-12-13T04:00:58;-6.60;99.90
7016;DHT22;3548;48.402;9.990;2022-12-13T04:03:23;-6.50;99.90
7016;DHT22;3548;48.402;9.990;2022-12-13T04:05:50;-6.50;99.90
7016;DHT22;3548;48.402;9.990;2022-12-13T04:08:16;-6.50;99.90
7016;DHT22;3548;48.402;9.990;2022-12-13T04:10:41;-6.50;99.90
7016;DHT22;3548;48.402;9.990;2022-12-13T04:13:09;-6.60;99.90
7016;DHT22;3548;48.402;9.990;2022-12-13T04:15:53;-6.70;99.90
7016;DHT22;3548;48.402;9.990;2022-12-13T04:18:19;-6.70;99.90
7016;DHT22;3548;48.402;9.990;2022-12-13T04:20:46;-6.70;99.90
7016;DHT22;3548;48.402;9.990;2022-12-13T04:23:12;-6.70;99.90
7016;DHT22;3548;48.402;9.990;2022-12-13T04:25:39;-6.70;99.90
7016;DHT22;3548;48.402;9.990;2022-12-13T04:28:06;-6.80;99.90
7016;DHT22;3548;48.402;9.990;2022-12-13T04:30:32;-6.80;99.90
7016;DHT22;3548;48.402;9.990;2022-12-13T04:32:58;-6.80;99.90
7016;DHT22;3548;48.402;9.990;2022-12-13T04:35:23;-6.80;99.90
7016;DHT22;3548;48.402;9.990;2022-12-13T04:37:49;-6.80;99.90
7016;DHT22;3548;48.402;9.990;2022-12-13T04:40:15;-6.90;99.90
7016;DHT22;3548;48.402;9.990;2022-12-13T04:42:42;-6.90;99.90
7016;DHT22;3548;48.402;9.990;2022-12-13T04:45:09;-6.90;99.90
7016;DHT22;3548;48.402;9.990;2022-12-13T04:47:38;-6.90;99.90
7016;DHT22;3548;48.402;9.990;2022-12-13T04:50:04;-7.00;99.90
7016;DHT22;3548;48.402;9.990;2022-12-13T04:52:30;-7.00;99.90
7016;DHT22;3548;48.402;9.990;2022-12-13T04:54:56;-6.90;99.90
7016;DHT22;3548;48.402;9.990;2022-12-13T04:57:22;-7.00;99.90
7016;DHT22;3548;48.402;9.990;2022-12-13T04:59:48;-7.00;99.90
7016;DHT22;3548;48.402;9.990;2022-12-13T05:02:13;-7.10;99.90
7016;DHT22;3548;48.402;9.990;2022-12-13T05:04:39;-7.00;99.90
7016;DHT22;3548;48.402;9.990;2022-12-13T05:07:05;-7.10;99.90
7016;DHT22;3548;48.402;9.990;2022-12-13T05:09:30;-7.10;99.90
7016;DHT22;3548;48.402;9.990;2022-12-13T05:11:56;-7.10;99.90
7016;DHT22;3548;48.402;9.990;2022-12-13T05:14:22;-7.00;99.90
7016;DHT22;3548;48.402;9.990;2022-12-13T05:16:48;-7.00;99.90
7016;DHT22;3548;48.402;9.990;2022-12-13T05:19:13;-7.00;99.90
7016;DHT22;3548;48.402;9.990;2022-12-13T05:21:39;-7.00;99.90
7016;DHT22;3548;48.402;9.990;2022-12-13T05:24:05;-7.00;99.90
7016;DHT22;3548;48.402;9.990;2022-12-13T05:26:31;-7.10;99.90
7016;DHT22;3548;48.402;9.990;2022-12-13T05:28:57;-7.20;99.90
7016;DHT22;3548;48.402;9.990;2022-12-13T05:31:23;-7.20;99.90
7016;DHT22;3548;48.402;9.990;2022-12-13T05:33:49;-7.30;99.90
7016;DHT22;3548;48.402;9.990;2022-12-13T05:36:15;-7.40;99.90
7016;DHT22;3548;48.402;9.990;2022-12-13T05:38:41;-7.40;99.90
7016;DHT22;3548;48.402;9.990;2022-12-13T05:41:12;-7.50;99.90
7016;DHT22;3548;48.402;9.990;2022-12-13T05:43:39;-7.50;99.90
7016;DHT22;3548;48.402;9.990;2022-12-13T05:46:05;-7.60;99.90
7016;DHT22;3548;48.402;9.990;2022-12-13T05:48:30;-7.60;99.90
7016;DHT22;3548;48.402;9.990;2022-12-13T05:50:56;-7.60;99.90
7016;DHT22;3548;48.402;9.990;2022-12-13T05:53:21;-7.60;99.90
7016;DHT22;3548;48.402;9.990;2022-12-13T05:55:47;-7.70;99.90
7016;DHT22;3548;48.402;9.990;2022-12-13T05:58:12;-7.80;99.90
7016;DHT22;3548;48.402;9.990;2022-12-13T06:00:39;-7.70;99.90
7016;DHT22;3548;48.402;9.990;2022-12-13T06:03:05;-7.60;99.90
7016;DHT22;3548;48.402;9.990;2022-12-13T06:05:30;-7.60;99.90
7016;DHT22;3548;48.402;9.990;2022-12-13T06:07:56;-7.60;99.90
7016;DHT22;3548;48.402;9.990;2022-12-13T06:10:22;-7.70;99.90
7016;DHT22;3548;48.402;9.990;2022-12-13T06:12:47;-7.60;99.90
7016;DHT22;3548;48.402;9.990;2022-12-13T06:15:14;-7.60;99.90
7016;DHT22;3548;48.402;9.990;2022-12-13T06:17:39;-7.50;99.90
7016;DHT22;3548;48.402;9.990;2022-12-13T06:20:06;-7.50;99.90
7016;DHT22;3548;48.402;9.990;2022-12-13T06:22:31;-7.50;99.90
7016;DHT22;3548;48.402;9.990;2022-12-13T06:24:57;-7.50;99.90
7016;DHT22;3548;48.402;9.990;2022-12-13T06:27:23;-7.50;99.90
7016;DHT22;3548;48.402;9.990;2022-12-13T06:29:48;-7.60;99.90
7016;DHT22;3548;48.402;9.990;2022-12-13T06:32:14;-7.60;99.90
7016;DHT22;3548;48.402;9.990;2022-12-13T06:34:41;-7.60;99.90
7016;DHT22;3548;48.402;9.990;2022-12-13T06:37:09;-7.70;99.90
7016;DHT22;3548;48.402;9.990;2022-12-13T06:39:35;-7.70;99.90
7016;DHT22;3548;48.402;9.990;2022-12-13T06:42:06;-7.60;99.90
7016;DHT22;3548;48.402;9.990;2022-12-13T06:44:32;-7.60;99.90
7016;DHT22;3548;48.402;9.990;2022-12-13T06:46:59;-7.60;99.90
7016;DHT22;3548;48.402;9.990;2022-12-13T06:49:25;-7.50;99.90
7016;DHT22;3548;48.402;9.990;2022-12-13T06:51:50;-7.50;99.90
7016;DHT22;3548;48.402;9.990;2022-12-13T06:54:16;-7.40;99.90
7016;DHT22;3548;48.402;9.990;2022-12-13T06:56:42;-7.40;99.90
7016;DHT22;3548;48.402;9.990;2022-12-13T06:59:07;-7.40;99.90
7016;DHT22;3548;48.402;9.990;2022-12-13T07:01:33;-7.40;99.90
7016;DHT22;3548;48.402;9.990;2022-12-13T07:03:58;-7.40;99.90
7016;DHT22;3548;48.402;9.990;2022-12-13T07:06:24;-7.30;99.90
7016;DHT22;3548;48.402;9.990;2022-12-13T07:08:53;-7.40;99.90
7016;DHT22;3548;48.402;9.990;2022-12-13T07:11:21;-7.30;99.90
7016;DHT22;3548;48.402;9.990;2022-12-13T07:13:47;-7.30;99.90
7016;DHT22;3548;48.402;9.990;2022-12-13T07:16:13;-7.20;99.90
7016;DHT22;3548;48.402;9.990;2022-12-13T07:18:39;-7.20;99.90
7016;DHT22;3548;48.402;9.990;2022-12-13T07:21:06;-7.20;99.90
7016;DHT22;3548;48.402;9.990;2022-12-13T07:23:33;-7.20;99.90
7016;DHT22;3548;48.402;9.990;2022-12-13T07:26:00;-7.20;99.90
7016;DHT22;3548;48.402;9.990;2022-12-13T07:28:27;-7.20;99.90
7016;DHT22;3548;48.402;9.990;2022-12-13T07:30:52;-7.10;99.90
7016;DHT22;3548;48.402;9.990;2022-12-13T07:33:18;-7.10;99.90
7016;DHT22;3548;48.402;9.990;2022-12-13T07:35:44;-7.00;99.90
7016;DHT22;3548;48.402;9.990;2022-12-13T07:38:10;-6.90;99.90
7016;DHT22;3548;48.402;9.990;2022-12-13T07:40:37;-6.90;99.90
7016;DHT22;3548;48.402;9.990;2022-12-13T07:43:03;-6.90;99.90
7016;DHT22;3548;48.402;9.990;2022-12-13T07:45:31;-6.80;99.90
7016;DHT22;3548;48.402;9.990;2022-12-13T07:47:57;-6.70;99.90
7016;DHT22;3548;48.402;9.990;2022-12-13T07:50:23;-6.70;99.90
7016;DHT22;3548;48.402;9.990;2022-12-13T07:52:50;-6.60;99.90
7016;DHT22;3548;48.402;9.990;2022-12-13T07:55:16;-6.50;99.90
7016;DHT22;3548;48.402;9.990;2022-12-13T07:57:43;-6.40;99.90
7016;DHT22;3548;48.402;9.990;2022-12-13T08:00:09;-6.50;99.90
7016;DHT22;3548;48.402;9.990;2022-12-13T08:02:36;-6.50;99.90
7016;DHT22;3548;48.402;9.990;2022-12-13T08:05:01;-6.50;99.90
7016;DHT22;3548;48.402;9.990;2022-12-13T08:07:27;-6.40;99.90
7016;DHT22;3548;48.402;9.990;2022-12-13T08:09:52;-6.20;99.90
7016;DHT22;3548;48.402;9.990;2022-12-13T08:12:19;-6.30;99.90
7016;DHT22;3548;48.402;9.990;2022-12-13T08:14:45;-6.30;99.90
7016;DHT22;3548;48.402;9.990;2022-12-13T08:17:11;-6.20;99.90
7016;DHT22;3548;48.402;9.990;2022-12-13T08:19:37;-6.20;99.90
7016;DHT22;3548;48.402;9.990;2022-12-13T08:22:03;-6.20;99.90
7016;DHT22;3548;48.402;9.990;2022-12-13T08:24:29;-6.20;99.90
7016;DHT22;3548;48.402;9.990;2022-12-13T08:27:00;-6.20;99.90
7016;DHT22;3548;48.402;9.990;2022-12-13T08:29:26;-6.10;99.90
7016;DHT22;3548;48.402;9.990;2022-12-13T08:31:52;-6.00;99.90
7016;DHT22;3548;48.402;9.990;2022-12-13T08:34:18;-6.00;99.90
7016;DHT22;3548;48.402;9.990;2022-12-13T08:36:43;-6.00;99.90
7016;DHT22;3548;48.402;9.990;2022-12-13T08:39:09;-5.90;99.90
7016;DHT22;3548;48.402;9.990;2022-12-13T08:41:34;-5.90;99.90
7016;DHT22;3548;48.402;9.990;2022-12-13T08:44:00;-6.00;99.90
7016;DHT22;3548;48.402;9.990;2022-12-13T08:46:25;-6.00;99.90
7016;DHT22;3548;48.402;9.990;2022-12-13T08:48:54;-5.90;99.90
7016;DHT22;3548;48.402;9.990;2022-12-13T08:51:20;-5.90;99.90
7016;DHT22;3548;48.402;9.990;2022-12-13T08:53:50;-5.90;99.90
7016;DHT22;3548;48.402;9.990;2022-12-13T08:56:16;-5.80;99.90
7016;DHT22;3548;48.402;9.990;2022-12-13T08:58:43;-5.80;99.90
7016;DHT22;3548;48.402;9.990;2022-12-13T09:01:09;-5.80;99.90
7016;DHT22;3548;48.402;9.990;2022-12-13T09:03:36;-5.80;99.90
7016;DHT22;3548;48.402;9.990;2022-12-13T09:06:11;-5.80;99.90
7016;DHT22;3548;48.402;9.990;2022-12-13T09:08:37;-5.70;99.90
7016;DHT22;3548;48.402;9.990;2022-12-13T09:11:04;-5.60;99.90
7016;DHT22;3548;48.402;9.990;2022-12-13T09:13:33;-5.50;99.90
7016;DHT22;3548;48.402;9.990;2022-12-13T09:16:04;-5.60;99.90
7016;DHT22;3548;48.402;9.990;2022-12-13T09:18:30;-5.50;99.90
7016;DHT22;3548;48.402;9.990;2022-12-13T09:20:56;-5.60;99.90
7016;DHT22;3548;48.402;9.990;2022-12-13T09:23:21;-5.60;99.90
7016;DHT22;3548;48.402;9.990;2022-12-13T09:25:57;-5.50;99.90
7016;DHT22;3548;48.402;9.990;2022-12-13T09:28:25;-5.40;99.90
7016;DHT22;3548;48.402;9.990;2022-12-13T09:30:50;-5.30;99.90
7016;DHT22;3548;48.402;9.990;2022-12-13T09:33:16;-5.20;99.90
7016;DHT22;3548;48.402;9.990;2022-12-13T09:35:42;-5.20;99.90
7016;DHT22;3548;48.402;9.990;2022-12-13T09:38:07;-5.30;99.90
7016;DHT22;3548;48.402;9.990;2022-12-13T09:40:34;-5.40;99.90
7016;DHT22;3548;48.402;9.990;2022-12-13T09:43:01;-5.40;99.90
7016;DHT22;3548;48.402;9.990;2022-12-13T09:45:28;-5.40;99.90
7016;DHT22;3548;48.402;9.990;2022-12-13T09:47:55;-5.40;99.90
7016;DHT22;3548;48.402;9.990;2022-12-13T09:52:47;-5.40;99.90
7016;DHT22;3548;48.402;9.990;2022-12-13T09:55:22;-5.30;99.90
7016;DHT22;3548;48.402;9.990;2022-12-13T09:57:49;-5.30;99.90
7016;DHT22;3548;48.402;9.990;2022-12-13T10:00:20;-5.30;99.90
7016;DHT22;3548;48.402;9.990;2022-12-13T10:02:57;-5.20;99.90
7016;DHT22;3548;48.402;9.990;2022-12-13T10:05:33;-5.10;99.90
7016;DHT22;3548;48.402;9.990;2022-12-13T10:08:13;-5.10;99.90
7016;DHT22;3548;48.402;9.990;2022-12-13T10:10:40;-5.10;99.90
7016;DHT22;3548;48.402;9.990;2022-12-13T10:13:16;-5.00;99.90
7016;DHT22;3548;48.402;9.990;2022-12-13T10:15:47;-5.00;99.90
7016;DHT22;3548;48.402;9.990;2022-12-13T10:18:23;-4.90;99.90
7016;DHT22;3548;48.402;9.990;2022-12-13T10:20:50;-5.00;99.90
7016;DHT22;3548;48.402;9.990;2022-12-13T10:23:16;-5.00;99.90
7016;DHT22;3548;48.402;9.990;2022-12-13T10:25:47;-4.90;99.90
7016;DHT22;3548;48.402;9.990;2022-12-13T10:28:16;-4.80;99.90
7016;DHT22;3548;48.402;9.990;2022-12-13T10:30:43;-4.80;99.90
7016;DHT22;3548;48.402;9.990;2022-12-13T10:33:29;-4.70;99.90
7016;DHT22;3548;48.402;9.990;2022-12-13T10:36:34;-4.80;99.90
7016;DHT22;3548;48.402;9.990;2022-12-13T10:39:02;-4.90;99.90
7016;DHT22;3548;48.402;9.990;2022-12-13T10:41:36;-5.00;99.90
7016;DHT22;3548;48.402;9.990;2022-12-13T10:44:16;-5.00;99.90
7016;DHT22;3548;48.402;9.990;2022-12-13T10:46:49;-4.80;99.90
7016;DHT22;3548;48.402;9.990;2022-12-13T10:49:24;-4.60;99.90
7016;DHT22;3548;48.402;9.990;2022-12-13T10:51:50;-4.70;99.90
7016;DHT22;3548;48.402;9.990;2022-12-13T10:54:29;-4.60;99.90
7016;DHT22;3548;48.402;9.990;2022-12-13T10:56:56;-4.60;99.90
7016;DHT22;3548;48.402;9.990;2022-12-13T10:59:34;-4.60;99.90
7016;DHT22;3548;48.402;9.990;2022-12-13T11:07:45;-4.40;99.90
7016;DHT22;3548;48.402;9.990;2022-12-13T11:10:29;-4.30;99.90
7016;DHT22;3548;48.402;9.990;2022-12-13T11:13:03;-4.30;99.90
7016;DHT22;3548;48.402;9.990;2022-12-13T11:15:31;-4.20;99.90
7016;DHT22;3548;48.402;9.990;2022-12-13T11:18:06;-4.10;99.90
7016;DHT22;3548;48.402;9.990;2022-12-13T11:20:37;-4.10;99.90
7016;DHT22;3548;48.402;9.990;2022-12-13T11:25:40;-4.20;99.90
7016;DHT22;3548;48.402;9.990;2022-12-13T11:33:59;-4.20;99.90
7016;DHT22;3548;48.402;9.990;2022-12-13T11:36:37;-4.10;99.90
7016;DHT22;3548;48.402;9.990;2022-12-13T11:39:13;-4.20;99.90
7016;DHT22;3548;48.402;9.990;2022-12-13T11:41:54;-4.20;99.90
7016;DHT22;3548;48.402;9.990;2022-12-13T11:46:59;-4.20;99.90
7016;DHT22;3548;48.402;9.990;2022-12-13T11:49:39;-4.20;99.90
7016;DHT22;3548;48.402;9.990;2022-12-13T11:52:16;-4.20;99.90
7016;DHT22;3548;48.402;9.990;2022-12-13T11:54:58;-4.30;99.90
7016;DHT22;3548;48.402;9.990;2022-12-13T12:00:14;-4.30;99.90
7016;DHT22;3548;48.402;9.990;2022-12-13T12:02:46;-4.30;99.90
7016;DHT22;3548;48.402;9.990;2022-12-13T12:05:34;-4.30;99.90
7016;DHT22;3548;48.402;9.990;2022-12-13T12:08:29;-4.10;99.90
7016;DHT22;3548;48.402;9.990;2022-12-13T12:11:09;-4.10;99.90
7016;DHT22;3548;48.402;9.990;2022-12-13T12:13:41;-4.30;99.90
7016;DHT22;3548;48.402;9.990;2022-12-13T12:18:45;-4.40;99.90
7016;DHT22;3548;48.402;9.990;2022-12-13T12:21:34;-4.40;99.90
7016;DHT22;3548;48.402;9.990;2022-12-13T12:24:19;-4.40;99.90
7016;DHT22;3548;48.402;9.990;2022-12-13T12:32:26;-4.20;99.90
7016;DHT22;3548;48.402;9.990;2022-12-13T12:43:55;-3.80;99.90
7016;DHT22;3548;48.402;9.990;2022-12-13T12:46:35;-3.80;99.90
7016;DHT22;3548;48.402;9.990;2022-12-13T13:03:25;-3.70;99.90
7016;DHT22;3548;48.402;9.990;2022-12-13T13:06:11;-3.70;99.90
7016;DHT22;3548;48.402;9.990;2022-12-13T13:08:55;-3.60;99.90
7016;DHT22;3548;48.402;9.990;2022-12-13T13:11:25;-3.60;99.90
7016;DHT22;3548;48.402;9.990;2022-12-13T13:18:56;-3.70;99.90
7016;DHT22;3548;48.402;9.990;2022-12-13T13:26:47;-3.80;99.90
7016;DHT22;3548;48.402;9.990;2022-12-13T13:34:43;-4.00;99.90
7016;DHT22;3548;48.402;9.990;2022-12-13T13:39:58;-4.10;99.90
7016;DHT22;3548;48.402;9.990;2022-12-13T13:42:29;-4.10;99.90
7016;DHT22;3548;48.402;9.990;2022-12-13T13:45:20;-4.20;99.90
7016;DHT22;3548;48.402;9.990;2022-12-13T13:48:10;-4.10;99.90
7016;DHT22;3548;48.402;9.990;2022-12-13T13:56:10;-4.20;99.90
7016;DHT22;3548;48.402;9.990;2022-12-13T14:10:29;-4.20;99.90
7016;DHT22;3548;48.402;9.990;2022-12-13T14:13:08;-4.30;99.90
7016;DHT22;3548;48.402;9.990;2022-12-13T14:16:02;-4.30;99.90
7016;DHT22;3548;48.402;9.990;2022-12-13T14:29:43;-4.20;99.90
7016;DHT22;3548;48.402;9.990;2022-12-13T14:32:18;-4.20;99.90
7016;DHT22;3548;48.402;9.990;2022-12-13T14:34:45;-4.20;99.90
7016;DHT22;3548;48.402;9.990;2022-12-13T14:37:28;-4.20;99.90
7016;DHT22;3548;48.402;9.990;2022-12-13T14:39:55;-4.40;99.90
7016;DHT22;3548;48.402;9.990;2022-12-13T14:42:31;-4.40;99.90
7016;DHT22;3548;48.402;9.990;2022-12-13T14:45:17;-4.30;99.90
7016;DHT22;3548;48.402;9.990;2022-12-13T14:47:46;-4.30;99.90
7016;DHT22;3548;48.402;9.990;2022-12-13T14:50:15;-4.30;99.90
7016;DHT22;3548;48.402;9.990;2022-12-13T14:52:43;-4.30;99.90
7016;DHT22;3548;48.402;9.990;2022-12-13T14:57:51;-4.30;99.90
7016;DHT22;3548;48.402;9.990;2022-12-13T15:00:28;-4.30;99.90
7016;DHT22;3548;48.402;9.990;2022-12-13T15:02:57;-4.40;99.90
7016;DHT22;3548;48.402;9.990;2022-12-13T15:05:27;-4.40;99.90
7016;DHT22;3548;48.402;9.990;2022-12-13T15:07:53;-4.40;99.90
7016;DHT22;3548;48.402;9.990;2022-12-13T15:12:51;-4.40;99.90
7016;DHT22;3548;48.402;9.990;2022-12-13T15:15:32;-4.50;99.90
7016;DHT22;3548;48.402;9.990;2022-12-13T15:18:18;-4.50;99.90
7016;DHT22;3548;48.402;9.990;2022-12-13T15:20:46;-4.50;99.90
7016;DHT22;3548;48.402;9.990;2022-12-13T15:23:20;-4.50;99.90
7016;DHT22;3548;48.402;9.990;2022-12-13T15:25:55;-4.50;99.90
7016;DHT22;3548;48.402;9.990;2022-12-13T15:28:21;-4.50;99.90
7016;DHT22;3548;48.402;9.990;2022-12-13T15:30:49;-4.50;99.90
7016;DHT22;3548;48.402;9.990;2022-12-13T15:35:40;-4.60;99.90
7016;DHT22;3548;48.402;9.990;2022-12-13T15:38:11;-4.50;99.90
7016;DHT22;3548;48.402;9.990;2022-12-13T15:40:45;-4.50;99.90
7016;DHT22;3548;48.402;9.990;2022-12-13T15:43:16;-4.60;99.90
7016;DHT22;3548;48.402;9.990;2022-12-13T15:45:45;-4.70;99.90
7016;DHT22;3548;48.402;9.990;2022-12-13T15:48:26;-4.70;99.90
7016;DHT22;3548;48.402;9.990;2022-12-13T15:53:31;-4.70;99.90
7016;DHT22;3548;48.402;9.990;2022-12-13T15:55:58;-4.70;99.90
7016;DHT22;3548;48.402;9.990;2022-12-13T15:58:35;-4.60;99.90
7016;DHT22;3548;48.402;9.990;2022-12-13T16:01:01;-4.60;99.90
7016;DHT22;3548;48.402;9.990;2022-12-13T16:03:42;-4.60;99.90
7016;DHT22;3548;48.402;9.990;2022-12-13T16:06:08;-4.70;99.90
7016;DHT22;3548;48.402;9.990;2022-12-13T16:08:38;-4.60;99.90
7016;DHT22;3548;48.402;9.990;2022-12-13T16:11:06;-4.70;99.90
7016;DHT22;3548;48.402;9.990;2022-12-13T16:13:34;-4.70;99.90
7016;DHT22;3548;48.402;9.990;2022-12-13T16:16:26;-4.70;99.90
7016;DHT22;3548;48.402;9.990;2022-12-13T16:18:59;-4.70;99.90
7016;DHT22;3548;48.402;9.990;2022-12-13T16:21:26;-4.60;99.90
7016;DHT22;3548;48.402;9.990;2022-12-13T16:23:52;-4.60;99.90
7016;DHT22;3548;48.402;9.990;2022-12-13T16:26:26;-4.60;99.90
7016;DHT22;3548;48.402;9.990;2022-12-13T16:28:53;-4.50;99.90
7016;DHT22;3548;48.402;9.990;2022-12-13T16:31:22;-4.50;99.90
7016;DHT22;3548;48.402;9.990;2022-12-13T16:33:48;-4.50;99.90
7016;DHT22;3548;48.402;9.990;2022-12-13T16:36:14;-4.60;99.90
7016;DHT22;3548;48.402;9.990;2022-12-13T16:38:40;-4.60;99.90
7016;DHT22;3548;48.402;9.990;2022-12-13T16:41:06;-4.50;99.90
7016;DHT22;3548;48.402;9.990;2022-12-13T16:43:33;-4.50;99.90
7016;DHT22;3548;48.402;9.990;2022-12-13T16:46:00;-4.40;99.90
7016;DHT22;3548;48.402;9.990;2022-12-13T16:48:28;-4.30;99.90
7016;DHT22;3548;48.402;9.990;2022-12-13T16:50:53;-4.30;99.90
7016;DHT22;3548;48.402;9.990;2022-12-13T16:53:19;-4.40;99.90
7016;DHT22;3548;48.402;9.990;2022-12-13T16:55:45;-4.40;99.90
7016;DHT22;3548;48.402;9.990;2022-12-13T16:58:13;-4.40;99.90
7016;DHT22;3548;48.402;9.990;2022-12-13T17:00:40;-4.50;99.90
7016;DHT22;3548;48.402;9.990;2022-12-13T17:03:06;-4.50;99.90
7016;DHT22;3548;48.402;9.990;2022-12-13T17:05:34;-4.60;99.90
7016;DHT22;3548;48.402;9.990;2022-12-13T17:08:00;-4.50;99.90
7016;DHT22;3548;48.402;9.990;2022-12-13T17:10:26;-4.50;99.90
7016;DHT22;3548;48.402;9.990;2022-12-13T17:12:52;-4.50;99.90
7016;DHT22;3548;48.402;9.990;2022-12-13T17:15:18;-4.60;99.90
7016;DHT22;3548;48.402;9.990;2022-12-13T17:17:45;-4.50;99.90
7016;DHT22;3548;48.402;9.990;2022-12-13T17:20:13;-4.50;99.90
7016;DHT22;3548;48.402;9.990;2022-12-13T17:22:40;-4.50;99.90
7016;DHT22;3548;48.402;9.990;2022-12-13T17:25:06;-4.50;99.90
7016;DHT22;3548;48.402;9.990;2022-12-13T17:27:32;-4.60;99.90
7016;DHT22;3548;48.402;9.990;2022-12-13T17:29:58;-4.60;99.90
7016;DHT22;3548;48.402;9.990;2022-12-13T17:32:25;-4.60;99.90
7016;DHT22;3548;48.402;9.990;2022-12-13T17:34:51;-4.60;99.90
7016;DHT22;3548;48.402;9.990;2022-12-13T17:37:17;-4.50;99.90
7016;DHT22;3548;48.402;9.990;2022-12-13T17:39:42;-4.40;99.90
7016;DHT22;3548;48.402;9.990;2022-12-13T17:42:09;-4.40;99.90
7016;DHT22;3548;48.402;9.990;2022-12-13T17:44:35;-4.40;99.90
7016;DHT22;3548;48.402;9.990;2022-12-13T17:47:01;-4.40;99.90
7016;DHT22;3548;48.402;9.990;2022-12-13T17:49:26;-4.50;99.90
7016;DHT22;3548;48.402;9.990;2022-12-13T17:51:53;-4.50;99.90
7016;DHT22;3548;48.402;9.990;2022-12-13T17:54:19;-4.50;99.90
7016;DHT22;3548;48.402;9.990;2022-12-13T17:56:46;-4.50;99.90
7016;DHT22;3548;48.402;9.990;2022-12-13T17:59:12;-4.50;99.90
7016;DHT22;3548;48.402;9.990;2022-12-13T18:01:39;-4.50;99.90
7016;DHT22;3548;48.402;9.990;2022-12-13T18:04:06;-4.50;99.90
7016;DHT22;3548;48.402;9.990;2022-12-13T18:06:31;-4.40;99.90
7016;DHT22;3548;48.402;9.990;2022-12-13T18:08:57;-4.40;99.90
7016;DHT22;3548;48.402;9.990;2022-12-13T18:11:23;-4.40;99.90
7016;DHT22;3548;48.402;9.990;2022-12-13T18:13:49;-4.40;99.90
7016;DHT22;3548;48.402;9.990;2022-12-13T18:16:16;-4.40;99.90
7016;DHT22;3548;48.402;9.990;2022-12-13T18:18:42;-4.40;99.90